Main page
METAR-TAF:

METAR-TAF

Airports :

Jaipur International Airport

Jaipur, India

latitude: 26-49N, longitude: 075-48E, elevation: 385 m

Current weather observation

The report was made 14 minutes ago, at 04:00 UTC
Wind 2 kt from variable directions
Temperature 33°C
Humidity 63%
Pressure 1006 hPa
Visibility: 3500 m
Few clouds at a height of 10000 ft
haze

METAR: VIJP 240400Z VRB02KT 3500 HZ FEW100 33/25 Q1006 NOSIG

Time: 09:44 (04:14 UTC)

Forecast

The report was made 2 hours and 14 minutes ago, at 02:00 UTC
Forecast valid from 24 at 03 UTC to 24 at 12 UTC
Wind 3 kt from variable directions
Visibility: 3000 m
Few clouds at a height of 3000 ft
Scattered clouds at a height of 10000 ft
haze
Becoming
from 24 at 04 UTC to 24 at 06 UTC
Wind 4 kt from the Northeast
Visibility: 5000 m
haze

TAF: VIJP 240200Z 2403/2412 VRB03KT 3000 HZ FEW030 SCT100 BECMG 2404/2406 05004KT 5000 HZ

Weather observations and forecasts of more than 4000 airports (METAR and TAF reports).

The available stations are represented by yellow and red dots on the map.

Hover mouse over dot to see the name of the station.

Then click to see weather observations and forecasts.

To change the map : click on the green buttons with a black cross to zoom in, on the green button with a dash to zoom out, or on the green arrows for adjacent maps.


METAR-TAF: